createdAt,value
2023-01-20T00:01:53.656Z,93493.72
2023-01-20T00:04:20.673Z,93488.50
2023-01-20T00:06:48.477Z,93489.25
2023-01-20T00:09:17.214Z,93494.78
2023-01-20T00:11:43.960Z,93491.03
2023-01-20T00:14:11.080Z,93493.13
2023-01-20T00:16:38.111Z,93496.31
2023-01-20T00:19:07.937Z,93497.09
2023-01-20T00:21:35.138Z,93505.59
2023-01-20T00:24:01.977Z,93504.31
2023-01-20T00:26:28.865Z,93517.38
2023-01-20T00:28:55.610Z,93504.78
2023-01-20T00:31:26.566Z,93508.75
2023-01-20T00:33:57.764Z,93517.66
2023-01-20T00:36:25.174Z,93509.59
2023-01-20T00:38:52.381Z,93518.53
2023-01-20T00:41:20.301Z,93522.28
2023-01-20T00:43:47.383Z,93523.75
2023-01-20T00:46:14.338Z,93523.00
2023-01-20T00:48:41.551Z,93529.03
2023-01-20T00:51:08.434Z,93537.22
2023-01-20T00:53:35.191Z,93535.25
2023-01-20T00:56:03.123Z,93536.75
2023-01-20T00:58:29.914Z,93544.25
2023-01-20T01:00:57.990Z,93547.41
2023-01-20T01:03:25.720Z,93548.44
2023-01-20T01:05:52.802Z,93548.75
2023-01-20T01:08:19.533Z,93547.88
2023-01-20T01:10:46.532Z,93547.38
2023-01-20T01:13:13.373Z,93554.88
2023-01-20T01:15:40.193Z,93562.22
2023-01-20T01:18:06.900Z,93561.03
2023-01-20T01:20:36.567Z,93559.72
2023-01-20T01:23:03.274Z,93571.88
2023-01-20T01:25:30.540Z,93568.22
2023-01-20T01:27:57.373Z,93573.19
2023-01-20T01:30:25.518Z,93593.28
2023-01-20T01:32:52.627Z,93590.41
2023-01-20T01:35:19.385Z,93599.72
2023-01-20T01:37:46.647Z,93594.66
2023-01-20T01:40:14.208Z,93594.66
2023-01-20T01:42:42.783Z,93596.75
2023-01-20T01:45:13.288Z,93598.56
2023-01-20T01:47:48.609Z,93609.47
2023-01-20T01:50:18.514Z,93615.56
2023-01-20T01:52:47.188Z,93618.50
2023-01-20T01:55:14.307Z,93624.06
2023-01-20T01:57:41.206Z,93632.38
2023-01-20T02:00:08.516Z,93635.69
2023-01-20T02:02:35.280Z,93642.81
2023-01-20T02:05:02.457Z,93639.50
2023-01-20T02:07:29.313Z,93634.22
2023-01-20T02:09:56.526Z,93643.13
2023-01-20T02:12:23.203Z,93647.53
2023-01-20T02:14:51.800Z,93649.44
2023-01-20T02:17:28.539Z,93646.91
2023-01-20T02:20:13.588Z,93655.84
2023-01-20T02:22:47.844Z,93661.34
2023-01-20T02:25:45.134Z,93658.78
2023-01-20T02:28:20.698Z,93672.31
2023-01-20T02:31:32.203Z,93667.00
2023-01-20T02:34:13.192Z,93666.25
2023-01-20T02:36:52.246Z,93681.84
2023-01-20T02:39:27.381Z,93681.84
2023-01-20T02:41:57.641Z,93675.94
2023-01-20T02:44:37.656Z,93678.72
2023-01-20T02:47:11.565Z,93685.78
2023-01-20T02:49:44.199Z,93683.81
2023-01-20T02:52:14.915Z,93688.88
2023-01-20T02:54:44.657Z,93686.56
2023-01-20T02:57:12.542Z,93686.56
2023-01-20T02:59:42.097Z,93693.94
2023-01-20T03:02:10.703Z,93688.88
2023-01-20T03:05:02.639Z,93695.50
2023-01-20T03:07:29.971Z,93695.91
2023-01-20T03:09:57.693Z,93698.25
2023-01-20T03:12:36.209Z,93704.47
2023-01-20T03:15:02.887Z,93706.78
2023-01-20T03:17:29.575Z,93708.72
2023-01-20T03:19:56.288Z,93706.00
2023-01-20T03:22:24.209Z,93703.66
2023-01-20T03:24:51.233Z,93711.06
2023-01-20T03:27:18.280Z,93714.97
2023-01-20T03:29:44.993Z,93713.75
2023-01-20T03:32:11.961Z,93714.97
2023-01-20T03:37:06.355Z,93717.22
2023-01-20T03:39:34.501Z,93723.09
2023-01-20T03:42:07.209Z,93724.28
2023-01-20T03:44:56.408Z,93731.31
2023-01-20T03:47:23.099Z,93733.66
2023-01-20T03:50:03.787Z,93739.47
2023-01-20T03:52:47.332Z,93735.91
2023-01-20T03:55:47.217Z,93734.63
2023-01-20T03:58:20.297Z,93745.63
2023-01-20T04:00:48.468Z,93743.63
2023-01-20T04:03:20.390Z,93743.97
2023-01-20T04:05:47.146Z,93738.16
2023-01-20T04:08:14.901Z,93743.19
2023-01-20T04:10:42.720Z,93751.22
2023-01-20T04:13:09.850Z,93752.56
2023-01-20T04:15:39.051Z,93753.50
2023-01-20T04:18:19.371Z,93751.97
2023-01-20T04:20:48.224Z,93755.84
2023-01-20T04:23:23.632Z,93761.28
2023-01-20T04:25:50.412Z,93767.53
2023-01-20T04:28:19.240Z,93763.66
2023-01-20T04:30:46.405Z,93768.72
2023-01-20T04:33:13.211Z,93761.25
2023-01-20T04:35:45.318Z,93767.69
2023-01-20T04:38:12.399Z,93765.75
2023-01-20T04:40:39.516Z,93769.19
2023-01-20T04:43:06.289Z,93772.06
2023-01-20T04:45:38.370Z,93784.31
2023-01-20T04:48:07.231Z,93787.06
2023-01-20T04:50:34.198Z,93790.09
2023-01-20T04:53:01.425Z,93795.91
2023-01-20T04:55:28.177Z,93805.59
2023-01-20T04:57:56.438Z,93818.03
2023-01-20T05:00:23.443Z,93814.09
2023-01-20T05:02:50.181Z,93818.03
2023-01-20T05:05:17.750Z,93824.25
2023-01-20T05:07:45.037Z,93823.84
2023-01-20T05:10:13.229Z,93831.25
2023-01-20T05:12:40.492Z,93843.66
2023-01-20T05:15:08.466Z,93851.00
2023-01-20T05:17:35.219Z,93859.91
2023-01-20T05:20:01.933Z,93853.38
2023-01-20T05:22:29.026Z,93857.72
2023-01-20T05:24:55.805Z,93864.28
2023-01-20T05:27:22.619Z,93871.69
2023-01-20T05:29:49.312Z,93879.06
2023-01-20T05:32:16.065Z,93879.91
2023-01-20T05:34:42.778Z,93885.03
2023-01-20T05:37:09.576Z,93885.59
2023-01-20T05:39:36.313Z,93881.34
2023-01-20T05:42:03.523Z,93892.22
2023-01-20T05:44:30.204Z,93894.22
2023-01-20T05:46:56.977Z,93899.53
2023-01-20T05:49:24.049Z,93910.13
2023-01-20T05:51:50.735Z,93905.41
2023-01-20T05:54:18.016Z,93914.88
2023-01-20T05:56:44.692Z,93909.44
2023-01-20T05:59:12.598Z,93920.34
2023-01-20T06:01:39.821Z,93918.63
2023-01-20T06:04:06.904Z,93931.19
2023-01-20T06:06:33.633Z,93925.59
2023-01-20T06:09:01.419Z,93930.41
2023-01-20T06:11:28.103Z,93930.50
2023-01-20T06:13:54.836Z,93928.91
2023-01-20T06:16:21.956Z,93937.19
2023-01-20T06:18:48.691Z,93930.13
2023-01-20T06:21:16.443Z,93939.75
2023-01-20T06:23:43.906Z,93949.25
2023-01-20T06:26:12.012Z,93952.09
2023-01-20T06:28:39.008Z,93966.81
2023-01-20T06:31:14.088Z,93960.81
2023-01-20T06:33:41.019Z,93966.06
2023-01-20T06:36:07.856Z,93966.94
2023-01-20T06:38:35.236Z,93978.09
2023-01-20T06:41:06.788Z,93982.88
2023-01-20T06:43:34.109Z,93988.03
2023-01-20T06:46:01.921Z,93989.25
2023-01-20T06:48:28.825Z,93989.22
2023-01-20T06:51:03.510Z,93998.94
2023-01-20T06:53:30.481Z,94009.06
2023-01-20T06:55:57.547Z,93994.69
2023-01-20T06:58:25.056Z,94006.69
2023-01-20T07:00:52.368Z,94018.03
2023-01-20T07:03:19.534Z,94001.31
2023-01-20T07:05:58.072Z,94017.28
2023-01-20T07:08:25.467Z,94015.34
2023-01-20T07:10:52.460Z,94014.19
2023-01-20T07:13:19.394Z,94025.88
2023-01-20T07:15:47.876Z,94027.03
2023-01-20T07:18:15.774Z,94028.31
2023-01-20T07:21:17.623Z,94034.88
2023-01-20T07:23:44.667Z,94036.09
2023-01-20T07:26:15.919Z,94046.63
2023-01-20T07:28:49.376Z,94051.72
2023-01-20T07:31:18.574Z,94054.06
2023-01-20T07:33:48.363Z,94054.44
2023-01-20T07:36:15.124Z,94070.03
2023-01-20T07:38:43.453Z,94063.03
2023-01-20T07:41:10.772Z,94063.03
2023-01-20T07:43:42.777Z,94068.53
2023-01-20T07:46:09.771Z,94072.44
2023-01-20T07:48:39.111Z,94084.09
2023-01-20T07:51:10.030Z,94083.75
2023-01-20T07:53:45.037Z,94091.22
2023-01-20T07:56:13.901Z,94088.94
2023-01-20T07:58:43.472Z,94092.84
2023-01-20T08:01:12.192Z,94106.09
2023-01-20T08:03:39.189Z,94109.81
2023-01-20T08:06:07.672Z,94104.34
2023-01-20T08:08:34.727Z,94109.44
2023-01-20T08:11:02.197Z,94115.78
2023-01-20T08:13:30.357Z,94114.13
2023-01-20T08:16:03.462Z,94119.34
2023-01-20T08:18:33.604Z,94119.75
2023-01-20T08:21:00.379Z,94124.81
2023-01-20T08:23:28.308Z,94124.25
2023-01-20T08:25:59.659Z,94137.22
2023-01-20T08:28:29.864Z,94136.66
2023-01-20T08:31:09.542Z,94133.09
2023-01-20T08:33:36.844Z,94142.75
2023-01-20T08:36:07.732Z,94141.81
2023-01-20T08:38:35.492Z,94150.94
2023-01-20T08:41:06.931Z,94159.63
2023-01-20T08:43:37.613Z,94156.09
2023-01-20T08:46:06.707Z,94164.16
2023-01-20T08:48:34.868Z,94164.78
2023-01-20T08:51:06.735Z,94171.50
2023-01-20T08:53:36.519Z,94174.13
2023-01-20T08:56:03.968Z,94174.03
2023-01-20T08:58:33.644Z,94182.69
2023-01-20T09:01:02.229Z,94187.31
2023-01-20T09:03:33.108Z,94184.69
2023-01-20T09:06:03.778Z,94190.16
2023-01-20T09:08:33.305Z,94195.81
2023-01-20T09:11:08.745Z,94200.97
2023-01-20T09:13:35.602Z,94201.44
2023-01-20T09:18:43.595Z,94208.72
2023-01-20T09:21:10.901Z,94216.81
2023-01-20T09:23:39.419Z,94224.22
2023-01-20T09:26:07.055Z,94229.94
2023-01-20T09:28:34.256Z,94230.19
2023-01-20T09:31:03.171Z,94232.84
2023-01-20T09:33:30.678Z,94232.09
2023-01-20T09:36:00.588Z,94231.63
2023-01-20T09:38:28.561Z,94233.44
2023-01-20T09:41:28.311Z,94241.81
2023-01-20T09:44:27.011Z,94242.53
2023-01-20T09:47:33.224Z,94247.44
2023-01-20T09:50:21.905Z,94250.28
2023-01-20T09:53:09.370Z,94252.69
2023-01-20T09:55:58.472Z,94248.56
2023-01-20T09:59:13.116Z,94245.28
2023-01-20T10:01:47.911Z,94244.91
2023-01-20T10:04:43.855Z,94248.44
2023-01-20T10:07:19.974Z,94260.31
2023-01-20T10:10:02.300Z,94254.41
2023-01-20T10:12:48.706Z,94265.22
2023-01-20T10:15:20.049Z,94264.44
2023-01-20T10:18:00.470Z,94253.91
2023-01-20T10:20:39.291Z,94259.38
2023-01-20T10:23:14.122Z,94250.16
2023-01-20T10:26:04.683Z,94254.75
2023-01-20T10:28:36.981Z,94260.56
2023-01-20T10:31:21.852Z,94269.47
2023-01-20T10:33:48.964Z,94271.63
2023-01-20T10:36:23.172Z,94274.41
2023-01-20T10:39:04.626Z,94269.16
2023-01-20T10:41:32.154Z,94270.44
2023-01-20T10:44:01.940Z,94267.50
2023-01-20T10:47:00.474Z,94273.59
2023-01-20T10:50:06.160Z,94272.47
2023-01-20T10:53:11.805Z,94278.50
2023-01-20T10:56:13.682Z,94275.41
2023-01-20T10:58:41.449Z,94277.53
2023-01-20T11:01:13.720Z,94272.16
2023-01-20T11:03:42.139Z,94265.97
2023-01-20T11:06:17.369Z,94273.63
2023-01-20T11:08:45.028Z,94274.53
2023-01-20T11:11:14.993Z,94270.84
2023-01-20T11:13:41.945Z,94272.50
2023-01-20T11:16:17.538Z,94272.34
2023-01-20T11:18:54.253Z,94282.19
2023-01-20T11:21:25.158Z,94273.53
2023-01-20T11:23:52.712Z,94284.44
2023-01-20T11:29:37.196Z,94283.19
2023-01-20T11:32:25.149Z,94275.66
2023-01-20T11:34:52.743Z,94293.50
2023-01-20T11:37:24.444Z,94284.81
2023-01-20T11:39:58.186Z,94289.34
2023-01-20T11:42:50.021Z,94284.41
2023-01-20T11:45:30.535Z,94286.72
2023-01-20T11:48:19.254Z,94284.03
2023-01-20T11:50:48.491Z,94287.13
2023-01-20T11:53:30.793Z,94283.94
2023-01-20T11:56:25.413Z,94289.75
2023-01-20T11:59:17.041Z,94285.81
2023-01-20T12:01:58.646Z,94292.50
2023-01-20T12:05:03.385Z,94289.78
2023-01-20T12:07:34.600Z,94285.59
2023-01-20T12:10:23.102Z,94292.63
2023-01-20T12:12:54.099Z,94287.06
2023-01-20T12:15:25.967Z,94297.22
2023-01-20T12:17:59.999Z,94300.41
2023-01-20T12:20:55.484Z,94292.06
2023-01-20T12:24:05.109Z,94296.56
2023-01-20T12:26:47.071Z,94290.88
2023-01-20T12:29:18.954Z,94301.72
2023-01-20T12:31:46.012Z,94302.78
2023-01-20T12:34:27.172Z,94304.69
2023-01-20T12:37:31.740Z,94301.97
2023-01-20T12:40:38.281Z,94311.84
2023-01-20T12:43:38.774Z,94310.63
2023-01-20T12:46:27.690Z,94309.25
2023-01-20T12:49:11.505Z,94312.50
2023-01-20T12:51:55.847Z,94320.06
2023-01-20T12:55:01.960Z,94307.28
2023-01-20T12:57:36.638Z,94303.50
2023-01-20T13:00:23.446Z,94304.84
2023-01-20T13:03:28.985Z,94314.13
2023-01-20T13:06:24.484Z,94302.28
2023-01-20T13:09:11.832Z,94305.94
2023-01-20T13:11:57.670Z,94302.50
2023-01-20T13:14:32.061Z,94305.03
2023-01-20T13:17:16.883Z,94308.06
2023-01-20T13:19:45.098Z,94304.09
2023-01-20T13:22:16.472Z,94300.81
2023-01-20T13:24:45.229Z,94310.69
2023-01-20T13:27:12.353Z,94313.50
2023-01-20T13:29:57.780Z,94320.97
2023-01-20T13:32:35.944Z,94305.50
2023-01-20T13:35:20.330Z,94310.78
2023-01-20T13:37:59.844Z,94315.59
2023-01-20T13:40:39.708Z,94312.19
2023-01-20T13:43:34.423Z,94308.84
2023-01-20T13:46:04.091Z,94313.88
2023-01-20T13:48:35.664Z,94310.19
2023-01-20T13:51:28.709Z,94315.97
2023-01-20T13:54:16.769Z,94324.41
2023-01-20T13:56:45.028Z,94321.47
2023-01-20T13:59:12.071Z,94334.94
2023-01-20T14:01:38.824Z,94337.81
2023-01-20T14:04:06.289Z,94341.75
2023-01-20T14:06:33.476Z,94347.16
2023-01-20T14:09:00.262Z,94335.25
2023-01-20T14:11:27.574Z,94341.06
2023-01-20T14:13:56.083Z,94345.81
2023-01-20T14:16:50.554Z,94341.94
2023-01-20T14:19:35.544Z,94356.09
2023-01-20T14:22:04.135Z,94359.78
2023-01-20T14:24:38.061Z,94353.44
2023-01-20T14:27:23.888Z,94350.13
2023-01-20T14:29:51.894Z,94343.44
2023-01-20T14:32:29.027Z,94346.34
2023-01-20T14:34:55.901Z,94354.44
2023-01-20T14:37:36.119Z,94348.50
2023-01-20T14:40:12.471Z,94361.47
2023-01-20T14:42:39.189Z,94353.25
2023-01-20T14:45:19.155Z,94365.16
2023-01-20T14:47:46.201Z,94363.31
2023-01-20T14:50:15.674Z,94358.47
2023-01-20T14:52:42.793Z,94362.00
2023-01-20T14:55:32.138Z,94363.47
2023-01-20T14:57:59.051Z,94358.41
2023-01-20T15:00:32.478Z,94364.16
2023-01-20T15:03:18.188Z,94358.28
2023-01-20T15:06:02.949Z,94359.91
2023-01-20T15:08:32.628Z,94367.47
2023-01-20T15:11:14.816Z,94376.25
2023-01-20T15:13:51.407Z,94379.81
2023-01-20T15:16:20.051Z,94387.22
2023-01-20T15:19:17.075Z,94391.69
2023-01-20T15:22:10.042Z,94388.69
2023-01-20T15:24:38.297Z,94398.97
2023-01-20T15:27:20.342Z,94398.16
2023-01-20T15:30:22.918Z,94399.47
2023-01-20T15:32:50.571Z,94396.53
2023-01-20T15:35:20.096Z,94394.50
2023-01-20T15:37:47.403Z,94400.44
2023-01-20T15:40:22.300Z,94396.31
2023-01-20T15:42:49.242Z,94399.56
2023-01-20T15:45:17.157Z,94401.16
2023-01-20T15:47:45.007Z,94403.91
2023-01-20T15:50:16.674Z,94397.34
2023-01-20T15:52:43.679Z,94407.25
2023-01-20T15:55:17.169Z,94403.66
2023-01-20T15:57:45.708Z,94411.22
2023-01-20T16:00:20.842Z,94404.50
2023-01-20T16:02:48.067Z,94403.22
2023-01-20T16:05:18.229Z,94408.25
2023-01-20T16:07:45.028Z,94403.59
2023-01-20T16:10:18.993Z,94400.06
2023-01-20T16:12:50.696Z,94399.97
2023-01-20T16:15:17.899Z,94408.06
2023-01-20T16:17:46.526Z,94406.13
2023-01-20T16:20:24.275Z,94411.63
2023-01-20T16:22:51.240Z,94418.97
2023-01-20T16:25:18.383Z,94418.97
2023-01-20T16:27:49.294Z,94414.19
2023-01-20T16:30:17.548Z,94414.69
2023-01-20T16:32:44.392Z,94414.31
2023-01-20T16:35:11.764Z,94414.00
2023-01-20T16:37:41.409Z,94418.38
2023-01-20T16:40:12.560Z,94418.84
2023-01-20T16:42:42.282Z,94416.91
2023-01-20T16:45:21.338Z,94416.94
2023-01-20T16:47:48.064Z,94422.53
2023-01-20T16:50:15.480Z,94424.22
2023-01-20T16:52:42.575Z,94419.09
2023-01-20T16:55:11.660Z,94430.06
2023-01-20T16:57:41.879Z,94430.56
2023-01-20T17:00:09.164Z,94433.38
2023-01-20T17:02:35.855Z,94435.31
2023-01-20T17:05:07.306Z,94434.59
2023-01-20T17:07:35.607Z,94433.06
2023-01-20T17:10:02.420Z,94427.97
2023-01-20T17:12:29.437Z,94434.63
2023-01-20T17:14:57.734Z,94437.78
2023-01-20T17:17:24.481Z,94444.81
2023-01-20T17:19:53.947Z,94440.09
2023-01-20T17:22:22.240Z,94436.16
2023-01-20T17:24:53.958Z,94445.16
2023-01-20T17:27:21.058Z,94445.94
2023-01-20T17:29:48.605Z,94444.72
2023-01-20T17:32:15.997Z,94449.41
2023-01-20T17:34:43.286Z,94447.44
2023-01-20T17:37:10.636Z,94458.00
2023-01-20T17:39:37.452Z,94456.03
2023-01-20T17:42:04.702Z,94452.50
2023-01-20T17:44:36.119Z,94454.03
2023-01-20T17:47:03.498Z,94459.47
2023-01-20T17:49:30.624Z,94455.94
2023-01-20T17:52:00.247Z,94459.09
2023-01-20T17:54:27.341Z,94459.47
2023-01-20T17:56:54.486Z,94463.34
2023-01-20T17:59:27.380Z,94460.72
2023-01-20T18:01:54.335Z,94459.53
2023-01-20T18:04:22.484Z,94466.16
2023-01-20T18:06:49.221Z,94470.41
2023-01-20T18:09:16.018Z,94467.28
2023-01-20T18:11:47.965Z,94468.03
2023-01-20T18:14:20.660Z,94465.69
2023-01-20T18:16:48.128Z,94474.28
2023-01-20T18:19:15.317Z,94472.22
2023-01-20T18:21:43.319Z,94475.69
2023-01-20T18:24:10.266Z,94471.81
2023-01-20T18:26:40.964Z,94476.13
2023-01-20T18:29:13.766Z,94475.63
2023-01-20T18:31:41.639Z,94468.56
2023-01-20T18:34:10.021Z,94478.38
2023-01-20T18:36:42.926Z,94474.06
2023-01-20T18:39:20.831Z,94483.03
2023-01-20T18:41:49.096Z,94484.56
2023-01-20T18:44:17.684Z,94482.28
2023-01-20T18:46:44.536Z,94488.59
2023-01-20T18:49:12.980Z,94479.63
2023-01-20T18:51:40.041Z,94484.25
2023-01-20T18:54:12.427Z,94482.94
2023-01-20T18:56:39.122Z,94487.16
2023-01-20T18:59:20.674Z,94490.78
2023-01-20T19:01:47.416Z,94495.97
2023-01-20T19:04:14.665Z,94484.91
2023-01-20T19:06:42.969Z,94487.31
2023-01-20T19:09:09.737Z,94481.44
2023-01-20T19:11:38.147Z,94479.56
2023-01-20T19:14:06.471Z,94490.88
2023-01-20T19:16:36.292Z,94486.06
2023-01-20T19:19:04.683Z,94485.56
2023-01-20T19:21:32.983Z,94493.34
2023-01-20T19:24:01.491Z,94479.31
2023-01-20T19:26:29.012Z,94486.81
2023-01-20T19:29:03.936Z,94481.47
2023-01-20T19:31:32.097Z,94481.91
2023-01-20T19:33:59.350Z,94483.03
2023-01-20T19:36:26.170Z,94484.97
2023-01-20T19:38:52.917Z,94485.41
2023-01-20T19:41:27.214Z,94486.19
2023-01-20T19:43:58.479Z,94488.50
2023-01-20T19:46:27.124Z,94485.47
2023-01-20T19:48:54.364Z,94499.44
2023-01-20T19:51:22.301Z,94494.78
2023-01-20T19:53:49.403Z,94487.00
2023-01-20T19:56:17.517Z,94497.56
2023-01-20T19:58:44.507Z,94489.44
2023-01-20T20:01:13.107Z,94490.63
2023-01-20T20:03:39.853Z,94494.13
2023-01-20T20:06:07.451Z,94494.84
2023-01-20T20:08:34.735Z,94499.94
2023-01-20T20:11:01.546Z,94493.00
2023-01-20T20:13:36.339Z,94506.63
2023-01-20T20:16:04.375Z,94496.03
2023-01-20T20:18:31.228Z,94499.94
2023-01-20T20:20:58.146Z,94500.72
2023-01-20T20:23:25.421Z,94500.34
2023-01-20T20:25:53.321Z,94514.00
2023-01-20T20:28:20.411Z,94503.47
2023-01-20T20:30:50.296Z,94502.69
2023-01-20T20:33:20.090Z,94500.00
2023-01-20T20:36:07.543Z,94492.22
2023-01-20T20:38:34.881Z,94498.47
2023-01-20T20:41:02.277Z,94506.31
2023-01-20T20:43:29.361Z,94500.47
2023-01-20T20:46:02.908Z,94497.75
2023-01-20T20:48:31.456Z,94506.38
2023-01-20T20:51:00.019Z,94497.81
2023-01-20T20:53:26.768Z,94506.03
2023-01-20T20:55:53.561Z,94502.16
2023-01-20T20:58:20.275Z,94507.25
2023-01-20T21:00:50.476Z,94505.69
2023-01-20T21:03:17.694Z,94499.06
2023-01-20T21:05:46.727Z,94499.84
2023-01-20T21:08:16.460Z,94499.47
2023-01-20T21:10:43.285Z,94510.47
2023-01-20T21:13:10.132Z,94499.13
2023-01-20T21:15:37.212Z,94504.63
2023-01-20T21:18:09.892Z,94499.56
2023-01-20T21:20:36.875Z,94496.41
2023-01-20T21:23:03.718Z,94496.41
2023-01-20T21:25:33.153Z,94495.66
2023-01-20T21:28:00.421Z,94502.69
2023-01-20T21:30:27.205Z,94497.97
2023-01-20T21:32:54.004Z,94500.31
2023-01-20T21:35:20.758Z,94492.50
2023-01-20T21:37:47.885Z,94498.78
2023-01-20T21:40:16.155Z,94507.41
2023-01-20T21:42:43.124Z,94500.78
2023-01-20T21:45:11.675Z,94500.41
2023-01-20T21:47:38.435Z,94500.00
2023-01-20T21:50:05.504Z,94505.47
2023-01-20T21:52:32.320Z,94496.88
2023-01-20T21:54:59.080Z,94494.16
2023-01-20T21:57:25.815Z,94500.41
2023-01-20T21:59:52.577Z,94502.34
2023-01-20T22:02:19.441Z,94505.84
2023-01-20T22:04:47.304Z,94502.31
2023-01-20T22:07:15.937Z,94494.91
2023-01-20T22:09:43.163Z,94499.97
2023-01-20T22:12:09.960Z,94505.47
2023-01-20T22:14:37.163Z,94500.41
2023-01-20T22:17:04.696Z,94498.44
2023-01-20T22:19:31.691Z,94497.28
2023-01-20T22:21:59.792Z,94501.09
2023-01-20T22:24:27.163Z,94491.41
2023-01-20T22:26:53.908Z,94496.72
2023-01-20T22:29:20.830Z,94493.22
2023-01-20T22:31:47.678Z,94498.50
2023-01-20T22:34:15.082Z,94496.78
2023-01-20T22:36:41.752Z,94499.84
2023-01-20T22:39:10.613Z,94502.31
2023-01-20T22:41:37.940Z,94507.41
2023-01-20T22:44:05.107Z,94516.94
2023-01-20T22:46:31.866Z,94521.19
2023-01-20T22:48:58.816Z,94503.53
2023-01-20T22:51:27.113Z,94497.22
2023-01-20T22:53:57.713Z,94498.06
2023-01-20T22:56:26.198Z,94502.00
2023-01-20T22:58:52.988Z,94504.34
2023-01-20T23:01:21.755Z,94511.38
2023-01-20T23:03:48.649Z,94506.28
2023-01-20T23:06:15.466Z,94502.38
2023-01-20T23:08:42.181Z,94496.25
2023-01-20T23:11:11.482Z,94498.81
2023-01-20T23:13:38.211Z,94498.06
2023-01-20T23:16:08.943Z,94503.56
2023-01-20T23:18:37.159Z,94500.44
2023-01-20T23:21:04.672Z,94499.22
2023-01-20T23:23:31.908Z,94495.34
2023-01-20T23:26:01.926Z,94497.59
2023-01-20T23:28:28.775Z,94491.75
2023-01-20T23:31:06.315Z,94492.19
2023-01-20T23:33:33.133Z,94494.94
2023-01-20T23:36:04.635Z,94490.22
2023-01-20T23:38:31.435Z,94486.31
2023-01-20T23:40:58.481Z,94495.72
2023-01-20T23:43:25.188Z,94491.78
2023-01-20T23:45:55.722Z,94492.59
2023-01-20T23:48:22.540Z,94493.38
2023-01-20T23:50:49.451Z,94500.41
2023-01-20T23:53:16.255Z,94489.84
2023-01-20T23:55:43.371Z,94484.69
2023-01-20T23:58:10.047Z,94486.84
